Time;durP1;ratioP1;P1;durP2;ratioP2;P2;SDS_P1;SDS_P2;PMS_P1;PMS_P2;Temp;Humidity;BMP_temperature;BMP_pressure;BME280_temperature;BME280_humidity;BME280_pressure;Samples;Min_cycle;Max_cycle;Signal;HPM_P1;HPM_P2
2022/08/25 00:01:35;;;;;;;1.07;1.07;;;;;;;19.75;83.08;95589.91;4344673;32;20223;-59
2022/08/25 00:04:03;;;;;;;1.53;1.43;;;;;;;19.79;82.97;95590.78;4356928;32;20194;-59
2022/08/25 00:06:29;;;;;;;1.47;1.40;;;;;;;19.76;83.05;95589.56;4357525;32;20243;-59
2022/08/25 00:08:58;;;;;;;1.63;1.53;;;;;;;19.72;83.28;95585.25;4366146;32;20211;-59
2022/08/25 00:11:58;;;;;;;1.27;1.27;;;;;;;19.65;83.80;95591.22;4357195;32;20260;-59
2022/08/25 00:14:35;;;;;;;1.43;1.43;;;;;;;19.67;83.69;95588.97;4353063;32;20204;-59
2022/08/25 00:17:02;;;;;;;1.43;1.43;;;;;;;19.64;83.63;95581.56;4343679;32;20212;-59
2022/08/25 00:19:32;;;;;;;1.60;1.50;;;;;;;19.74;83.41;95580.31;4356848;32;20310;-59
2022/08/25 00:21:59;;;;;;;1.30;1.30;;;;;;;19.74;83.34;95574.91;4354563;32;20235;-59
2022/08/25 00:24:24;;;;;;;1.90;1.80;;;;;;;19.70;83.50;95580.19;4370421;32;20204;-59
2022/08/25 00:26:53;;;;;;;1.70;1.70;;;;;;;19.69;83.64;95573.25;4360380;32;20229;-59
2022/08/25 00:29:21;;;;;;;1.10;1.10;;;;;;;19.74;83.55;95574.91;4372893;32;20188;-59
2022/08/25 00:31:46;;;;;;;1.53;1.43;;;;;;;19.74;83.40;95581.09;4356633;32;20225;-59
2022/08/25 00:34:17;;;;;;;2.10;1.90;;;;;;;19.59;84.16;95573.75;4345519;32;20281;-59
2022/08/25 00:37:10;;;;;;;1.30;1.30;;;;;;;19.48;84.75;95578.81;4343528;32;20247;-59
2022/08/25 00:39:37;;;;;;;1.60;1.50;;;;;;;19.45;85.15;95568.75;4357626;32;20208;-59
2022/08/25 00:42:04;;;;;;;2.10;2.00;;;;;;;19.47;84.99;95574.56;4360150;32;20215;-60
2022/08/25 00:44:32;;;;;;;1.50;1.50;;;;;;;19.51;84.86;95572.78;4351261;32;20207;-59
2022/08/25 00:47:00;;;;;;;1.40;1.30;;;;;;;19.56;84.79;95569.03;4344317;32;20197;-59
2022/08/25 00:49:55;;;;;;;2.37;2.27;;;;;;;19.55;84.75;95575.56;4357467;32;20200;-59
2022/08/25 00:52:24;;;;;;;2.87;1.57;;;;;;;19.32;85.93;95569.16;4343773;32;20205;-59
2022/08/25 00:54:53;;;;;;;2.07;1.83;;;;;;;19.38;85.77;95565.84;4358287;32;20212;-59
2022/08/25 00:57:23;;;;;;;2.20;2.10;;;;;;;19.28;86.38;95569.03;4359343;32;20233;-59
2022/08/25 00:59:49;;;;;;;1.43;1.37;;;;;;;19.25;86.52;95556.28;4358763;32;20189;-59
2022/08/25 01:02:15;;;;;;;2.33;2.20;;;;;;;19.27;86.70;95561.31;4346883;32;20235;-59
2022/08/25 01:04:42;;;;;;;2.93;2.73;;;;;;;19.26;86.84;95554.38;4373098;32;20189;-59
2022/08/25 01:07:23;;;;;;;1.63;1.53;;;;;;;19.27;86.93;95558.63;4355410;32;20251;-59
2022/08/25 01:09:51;;;;;;;2.17;2.00;;;;;;;19.27;87.23;95555.94;4344989;32;20207;-59
2022/08/25 01:12:17;;;;;;;1.87;1.77;;;;;;;19.28;86.90;95549.44;4349865;32;20209;-59
2022/08/25 01:14:45;;;;;;;1.97;1.87;;;;;;;19.28;87.10;95547.53;4347829;32;20311;-59
2022/08/25 01:17:11;;;;;;;1.90;1.80;;;;;;;19.27;87.25;95550.56;4354742;32;20216;-59
2022/08/25 01:19:36;;;;;;;2.17;2.00;;;;;;;19.27;87.32;95553.25;4350573;32;20197;-59
2022/08/25 01:22:27;;;;;;;4.43;2.50;;;;;;;19.22;87.66;95549.66;4355103;32;20205;-60
2022/08/25 01:25:00;;;;;;;2.87;2.67;;;;;;;19.16;88.11;95555.63;4341828;32;20203;-60
2022/08/25 01:27:26;;;;;;;2.00;1.90;;;;;;;19.16;88.14;95556.41;4344504;32;20197;-60
2022/08/25 01:29:51;;;;;;;1.87;1.77;;;;;;;19.06;88.87;95551.53;4344973;32;20193;-59
2022/08/25 01:32:16;;;;;;;1.70;1.70;;;;;;;19.08;88.76;95551.19;4353612;32;20264;-59
2022/08/25 01:34:44;;;;;;;2.57;2.37;;;;;;;19.06;88.80;95551.53;4349342;32;20313;-59
2022/08/25 01:37:12;;;;;;;2.57;2.47;;;;;;;19.02;88.88;95556.00;4357215;32;20209;-59
2022/08/25 01:39:38;;;;;;;1.83;1.73;;;;;;;19.14;88.43;95553.25;4359065;32;20193;-59
2022/08/25 01:42:07;;;;;;;2.37;2.27;;;;;;;19.13;88.41;95551.69;4357506;32;20223;-59
2022/08/25 01:44:35;;;;;;;3.37;3.07;;;;;;;19.00;88.84;95558.25;4358620;32;20201;-59
2022/08/25 01:47:15;;;;;;;2.60;2.50;;;;;;;18.93;89.37;95558.03;4357140;32;20250;-59
2022/08/25 01:49:40;;;;;;;3.03;2.77;;;;;;;19.09;88.61;95550.84;4358912;32;20193;-59
2022/08/25 01:52:13;;;;;;;2.17;2.07;;;;;;;19.04;88.58;95559.16;4341903;32;20235;-59
2022/08/25 01:54:39;;;;;;;3.43;2.60;;;;;;;19.03;88.81;95552.19;4355802;32;20235;-59
2022/08/25 01:57:04;;;;;;;2.70;2.60;;;;;;;18.86;89.26;95553.25;4357745;32;20205;-59
2022/08/25 01:59:30;;;;;;;2.17;1.93;;;;;;;19.00;88.90;95550.19;4344569;32;20197;-60
2022/08/25 02:05:17;;;;;;;2.30;2.20;;;;;;;19.03;88.68;95541.44;4352021;32;20315;-61
2022/08/25 02:07:43;;;;;;;2.20;2.10;;;;;;;19.06;88.36;95545.34;4358616;32;20256;-60
2022/08/25 02:10:11;;;;;;;2.97;2.83;;;;;;;19.03;88.37;95541.44;4358388;32;20192;-59
2022/08/25 02:12:36;;;;;;;4.33;2.97;;;;;;;18.95;88.74;95542.34;4363037;32;20220;-59
2022/08/25 02:15:05;;;;;;;3.20;3.00;;;;;;;18.83;89.47;95547.78;4358080;32;20222;-59
2022/08/25 02:17:36;;;;;;;2.70;2.60;;;;;;;18.81;89.59;95547.34;4348648;32;20192;-59
2022/08/25 02:20:05;;;;;;;2.67;2.53;;;;;;;18.72;90.27;95552.03;4366167;32;20243;-59
2022/08/25 02:22:30;;;;;;;3.37;3.17;;;;;;;18.73;90.35;95542.84;4369452;32;20215;-59
2022/08/25 02:24:55;;;;;;;3.13;2.93;;;;;;;18.59;91.19;95540.53;4369953;32;20233;-60
2022/08/25 02:27:22;;;;;;;3.00;2.87;;;;;;;18.54;91.62;95549.59;4361514;32;20196;-59
2022/08/25 02:29:47;;;;;;;3.50;3.30;;;;;;;18.64;91.27;95545.69;4370090;32;20203;-59
2022/08/25 02:32:12;;;;;;;3.27;3.07;;;;;;;18.61;91.47;95545.56;4373044;32;20315;-60
2022/08/25 02:34:40;;;;;;;1.87;1.77;;;;;;;18.52;91.63;95548.34;4359274;32;20193;-59
2022/08/25 02:38:00;;;;;;;2.80;2.70;;;;;;;18.61;91.48;95548.28;4361299;32;20260;-59
2022/08/25 02:40:26;;;;;;;3.17;2.97;;;;;;;18.73;91.00;95542.84;4356515;32;20188;-59
2022/08/25 02:42:52;;;;;;;3.20;2.90;;;;;;;18.64;91.19;95545.69;4369780;32;20245;-59
2022/08/25 02:45:18;;;;;;;4.23;3.83;;;;;;;18.69;90.97;95542.00;4368121;32;20198;-59
2022/08/25 02:47:44;;;;;;;2.37;2.17;;;;;;;18.60;91.15;95539.41;4351004;32;20283;-59
2022/08/25 02:50:11;;;;;;;2.33;2.13;;;;;;;18.60;91.16;95538.62;4375869;32;20185;-59
2022/08/25 02:52:37;;;;;;;3.23;2.80;;;;;;;18.61;90.86;95541.00;4359359;32;20204;-59
2022/08/25 02:55:05;;;;;;;2.47;2.37;;;;;;;18.55;91.13;95539.63;4362509;32;20184;-59
2022/08/25 02:57:30;;;;;;;3.60;3.30;;;;;;;18.53;91.42;95529.19;4367902;32;20184;-59
2022/08/25 02:59:56;;;;;;;3.60;3.37;;;;;;;18.61;91.00;95532.94;4373361;32;20192;-59
2022/08/25 03:02:47;;;;;;;5.93;3.83;;;;;;;18.50;91.29;95524.50;4362742;32;20185;-59
2022/08/25 03:05:13;;;;;;;4.00;3.73;;;;;;;18.32;92.15;95531.25;4360700;32;20257;-59
2022/08/25 03:07:39;;;;;;;3.20;3.10;;;;;;;18.26;92.60;95524.56;4359472;32;20208;-59
2022/08/25 03:13:26;;;;;;;4.37;3.43;;;;;;;18.40;92.11;95526.87;4361588;32;20208;-59
2022/08/25 03:15:51;;;;;;;3.63;3.43;;;;;;;18.38;91.94;95523.75;4377473;32;20185;-59
2022/08/25 03:18:17;;;;;;;2.83;2.67;;;;;;;18.50;91.35;95527.19;4368401;32;20204;-59
2022/08/25 03:20:43;;;;;;;3.03;2.83;;;;;;;18.39;91.61;95526.09;4372766;32;20298;-59
2022/08/25 03:23:09;;;;;;;3.03;2.80;;;;;;;18.32;92.15;95528.56;4360899;32;20193;-59
2022/08/25 03:28:19;;;;;;;3.13;2.93;;;;;;;18.47;91.26;95519.81;4361342;32;20239;-59
2022/08/25 03:30:44;;;;;;;3.00;2.90;;;;;;;18.41;91.45;95529.22;4366408;32;20188;-59
2022/08/25 03:33:10;;;;;;;3.63;3.23;;;;;;;18.44;91.39;95533.94;4365821;32;20219;-60
2022/08/25 03:35:36;;;;;;;3.10;2.90;;;;;;;18.41;91.49;95521.19;4362303;32;20211;-59
2022/08/25 03:38:02;;;;;;;2.60;2.50;;;;;;;18.33;91.72;95524.75;4361882;32;20189;-59
2022/08/25 03:40:28;;;;;;;2.77;2.67;;;;;;;18.26;92.38;95519.19;4358007;32;20185;-59
2022/08/25 03:42:55;;;;;;;2.90;2.70;;;;;;;18.35;91.99;95524.41;4360374;32;20212;-60
2022/08/25 03:45:22;;;;;;;2.73;2.53;;;;;;;18.35;91.78;95517.16;4368096;32;20256;-59
2022/08/25 03:47:49;;;;;;;4.07;3.87;;;;;;;18.37;91.36;95514.91;4346805;32;20211;-59
2022/08/25 03:50:16;;;;;;;3.50;2.93;;;;;;;18.28;92.04;95513.47;4358431;32;20249;-59
2022/08/25 03:52:42;;;;;;;3.57;3.37;;;;;;;18.33;91.64;95516.69;4344801;32;20194;-59
2022/08/25 03:55:10;;;;;;;2.33;2.23;;;;;;;18.39;91.36;95511.87;4366864;32;20230;-59
2022/08/25 03:57:37;;;;;;;2.93;2.73;;;;;;;18.35;91.47;95511.78;4366947;32;20197;-59
2022/08/25 04:00:05;;;;;;;2.90;2.80;;;;;;;18.41;91.24;95515.00;4360434;32;20193;-59
2022/08/25 04:02:32;;;;;;;3.23;2.87;;;;;;;18.40;91.22;95508.84;4358891;32;20177;-60
2022/08/25 04:04:57;;;;;;;9.47;3.77;;;;;;;18.39;90.94;95509.19;4346527;32;20197;-60
2022/08/25 04:07:23;;;;;;;4.77;3.90;;;;;;;18.36;91.16;95510.66;4360606;32;20210;-64
2022/08/25 04:09:48;;;;;;;3.77;3.57;;;;;;;18.36;91.17;95516.03;4374243;32;20215;-59
2022/08/25 04:12:13;;;;;;;2.90;2.80;;;;;;;18.26;91.66;95513.03;4367154;32;20224;-59
2022/08/25 04:14:41;;;;;;;3.30;3.10;;;;;;;18.31;91.61;95527.00;4359708;32;20256;-59
2022/08/25 04:17:07;;;;;;;3.30;3.10;;;;;;;18.18;92.16;95522.75;4346402;32;20217;-59
2022/08/25 04:19:33;;;;;;;3.67;2.93;;;;;;;18.10;92.54;95523.62;4377135;32;20232;-60
2022/08/25 04:21:58;;;;;;;3.03;2.93;;;;;;;18.26;91.95;95523.78;4365997;32;20197;-60
2022/08/25 04:24:23;;;;;;;3.50;3.30;;;;;;;18.25;91.88;95525.66;4367108;32;20193;-60
2022/08/25 04:26:50;;;;;;;3.60;3.40;;;;;;;18.27;91.79;95526.13;4361235;32;20197;-59
2022/08/25 04:29:19;;;;;;;2.33;2.23;;;;;;;18.27;91.87;95525.34;4355801;32;20230;-59
2022/08/25 04:31:46;;;;;;;2.17;2.07;;;;;;;18.11;92.30;95530.56;4367137;32;20193;-59
2022/08/25 04:34:12;;;;;;;4.40;3.87;;;;;;;18.13;92.64;95520.28;4359281;32;20251;-59
2022/08/25 04:36:38;;;;;;;2.57;2.47;;;;;;;18.24;92.02;95526.78;4358179;32;20256;-59
2022/08/25 04:39:05;;;;;;;3.30;3.10;;;;;;;18.19;92.14;95513.56;4357381;32;20176;-59
2022/08/25 04:41:30;;;;;;;2.60;2.50;;;;;;;18.13;92.38;95514.91;4358988;32;20180;-59
2022/08/25 04:43:58;;;;;;;3.17;2.87;;;;;;;18.19;92.27;95525.09;4353058;32;20216;-60
2022/08/25 04:46:27;;;;;;;2.13;2.03;;;;;;;18.12;92.55;95513.34;4368273;32;20176;-64
2022/08/25 04:48:55;;;;;;;3.27;2.97;;;;;;;18.26;92.05;95518.41;4360313;32;20201;-59
2022/08/25 04:51:25;;;;;;;6.10;3.93;;;;;;;18.14;92.40;95521.84;4374746;32;20204;-59
2022/08/25 04:53:51;;;;;;;3.03;2.73;;;;;;;18.09;92.58;95520.16;4373181;32;20253;-59
2022/08/25 04:56:23;;;;;;;4.53;3.57;;;;;;;18.22;92.05;95528.25;4356211;32;20228;-59
2022/08/25 04:58:49;;;;;;;3.43;3.13;;;;;;;18.16;92.33;95520.41;4345927;32;20241;-59
2022/08/25 05:01:17;;;;;;;3.07;2.87;;;;;;;18.09;92.47;95524.75;4345110;32;20201;-59
2022/08/25 05:03:51;;;;;;;3.57;3.37;;;;;;;18.16;92.28;95514.25;4344713;32;20246;-59
2022/08/25 05:06:17;;;;;;;3.63;3.43;;;;;;;18.08;92.58;95517.84;4343942;32;20189;-59
2022/08/25 05:08:42;;;;;;;2.63;2.53;;;;;;;18.13;92.28;95510.31;4356115;32;20240;-59
2022/08/25 05:11:12;;;;;;;4.33;4.03;;;;;;;18.05;92.84;95518.50;4352974;32;20205;-59
2022/08/25 05:13:38;;;;;;;2.90;2.53;;;;;;;18.11;92.52;95511.78;4359536;32;20184;-60
2022/08/25 05:16:06;;;;;;;2.93;2.80;;;;;;;18.21;92.13;95519.41;4356479;32;20177;-59
2022/08/25 05:18:33;;;;;;;2.53;2.43;;;;;;;18.15;92.53;95512.69;4358877;32;20181;-60
2022/08/25 05:21:09;;;;;;;2.53;2.43;;;;;;;18.15;92.24;95512.69;4372043;32;20197;-59
2022/08/25 05:23:35;;;;;;;3.23;3.03;;;;;;;18.13;92.29;95512.22;4361583;32;20189;-58
2022/08/25 05:26:06;;;;;;;3.60;2.67;;;;;;;18.12;92.27;95524.09;4370717;32;20223;-59
2022/08/25 05:28:32;;;;;;;4.33;2.93;;;;;;;18.09;92.41;95520.16;4369313;32;20192;-59
2022/08/25 05:31:00;;;;;;;3.67;3.37;;;;;;;18.13;92.01;95514.91;4358734;32;20223;-59
2022/08/25 05:33:26;;;;;;;3.40;3.20;;;;;;;18.04;92.39;95520.41;4359000;32;20191;-60
2022/08/25 05:35:51;;;;;;;3.70;3.50;;;;;;;18.08;92.27;95521.28;4369563;32;20209;-59
2022/08/25 05:38:17;;;;;;;3.07;2.87;;;;;;;18.16;92.01;95512.34;4355966;32;20192;-59
2022/08/25 05:40:42;;;;;;;3.83;3.63;;;;;;;18.20;91.96;95510.56;4362438;32;20207;-59
2022/08/25 05:43:09;;;;;;;6.03;3.73;;;;;;;18.28;91.66;95503.50;4357562;32;20216;-59
2022/08/25 05:45:35;;;;;;;3.53;3.33;;;;;;;18.24;91.84;95508.00;4367695;32;20211;-59
2022/08/25 05:48:00;;;;;;;3.73;3.43;;;;;;;18.19;91.86;95506.31;4359113;32;20330;-59
2022/08/25 05:50:26;;;;;;;3.07;2.87;;;;;;;18.23;92.14;95502.94;4366146;32;20209;-59
2022/08/25 05:52:52;;;;;;;3.33;3.13;;;;;;;18.20;92.26;95507.09;4368286;32;20197;-59
2022/08/25 05:55:17;;;;;;;5.33;4.83;;;;;;;18.14;92.49;95505.75;4363085;32;20208;-59
2022/08/25 05:57:43;;;;;;;4.10;3.80;;;;;;;18.28;92.03;95511.56;4344611;32;20200;-59
2022/08/25 06:00:09;;;;;;;5.07;4.67;;;;;;;18.29;92.08;95513.13;4359795;32;20261;-60
2022/08/25 06:02:44;;;;;;;3.17;3.07;;;;;;;18.29;91.86;95510.41;4359476;32;20213;-59
2022/08/25 06:05:13;;;;;;;6.77;6.17;;;;;;;18.38;91.05;95513.78;4370196;32;20247;-59
2022/08/25 06:07:38;;;;;;;3.80;3.60;;;;;;;18.42;91.14;95505.84;4369036;32;20234;-59
2022/08/25 06:10:06;;;;;;;2.73;2.63;;;;;;;18.44;91.19;95500.91;4369802;32;20280;-59
2022/08/25 06:12:34;;;;;;;3.37;3.13;;;;;;;18.47;90.93;95506.41;4358751;32;20207;-60
2022/08/25 06:15:01;;;;;;;4.10;3.80;;;;;;;18.40;91.09;95500.00;4362550;32;20258;-59
2022/08/25 06:17:26;;;;;;;2.47;2.37;;;;;;;18.45;91.00;95492.50;4357629;32;20215;-60
2022/08/25 06:19:52;;;;;;;3.40;2.90;;;;;;;18.50;90.86;95497.63;4366474;32;20193;-59
2022/08/25 06:22:18;;;;;;;2.40;2.30;;;;;;;18.54;90.52;95493.16;4366267;32;20193;-59
2022/08/25 06:24:43;;;;;;;3.13;2.93;;;;;;;18.51;90.70;95491.13;4365628;32;20211;-59
2022/08/25 06:27:08;;;;;;;2.10;2.07;;;;;;;18.50;90.57;95492.25;4367876;32;20243;-60
2022/08/25 06:29:34;;;;;;;3.93;3.63;;;;;;;18.62;90.32;95485.34;4363742;32;20255;-60
2022/08/25 06:31:59;;;;;;;3.27;3.07;;;;;;;18.61;90.15;95491.84;4364390;32;20255;-58
2022/08/25 06:34:25;;;;;;;3.40;3.07;;;;;;;18.76;89.71;95488.41;4364758;32;20213;-60
2022/08/25 06:36:50;;;;;;;2.40;2.30;;;;;;;18.64;90.23;95485.78;4361505;32;20303;-59
2022/08/25 06:39:16;;;;;;;3.10;2.83;;;;;;;18.77;90.06;95487.31;4349165;32;20205;-59
2022/08/25 06:41:41;;;;;;;2.77;2.67;;;;;;;18.75;89.92;95486.84;4370063;32;20197;-59
2022/08/25 06:44:06;;;;;;;3.57;3.37;;;;;;;18.75;89.18;95493.00;4350207;32;20203;-59
2022/08/25 06:46:32;;;;;;;2.57;2.47;;;;;;;18.74;89.50;95491.44;4372984;32;20192;-59
2022/08/25 06:48:58;;;;;;;2.67;2.57;;;;;;;18.85;89.37;95484.47;4370933;32;20230;-59
2022/08/25 06:51:25;;;;;;;3.07;2.87;;;;;;;19.00;89.02;95501.78;4368720;32;20181;-59
2022/08/25 06:53:51;;;;;;;8.27;3.47;;;;;;;18.98;88.78;95498.66;4372888;32;20197;-59
2022/08/25 06:56:19;;;;;;;2.87;2.63;;;;;;;19.04;88.61;95504.56;4363018;32;20196;-59
2022/08/25 06:58:46;;;;;;;3.17;2.97;;;;;;;19.01;88.59;95508.72;4362467;32;20252;-59
2022/08/25 07:01:22;;;;;;;6.30;2.97;;;;;;;19.07;87.81;95503.91;4356841;32;20193;-59
2022/08/25 07:03:49;;;;;;;2.53;2.43;;;;;;;18.86;88.75;95498.72;4353515;32;20242;-59
2022/08/25 07:06:15;;;;;;;2.60;2.50;;;;;;;19.04;88.23;95496.50;4356619;32;20181;-59
2022/08/25 07:08:41;;;;;;;3.43;2.57;;;;;;;19.19;87.82;95501.91;4361821;32;20232;-59
2022/08/25 07:11:08;;;;;;;3.00;2.80;;;;;;;19.38;86.36;95498.56;4364972;32;20203;-59
2022/08/25 07:13:35;;;;;;;2.20;2.10;;;;;;;19.41;86.86;95503.28;4376721;32;20195;-59
2022/08/25 07:16:00;;;;;;;2.37;2.17;;;;;;;19.50;85.79;95501.25;4362475;32;20240;-59
2022/08/25 07:18:25;;;;;;;2.33;2.23;;;;;;;19.61;85.62;95496.13;4369212;32;20217;-59
2022/08/25 07:20:52;;;;;;;6.00;2.20;;;;;;;19.66;84.70;95503.94;4357849;32;20244;-59
2022/08/25 07:23:18;;;;;;;1.80;1.70;;;;;;;19.69;84.85;95500.56;4361979;32;20223;-59
2022/08/25 07:25:44;;;;;;;2.07;1.97;;;;;;;19.84;83.67;95499.78;4364586;32;20230;-59
2022/08/25 07:28:10;;;;;;;2.37;2.27;;;;;;;19.88;84.17;95489.87;4364567;32;20240;-59
2022/08/25 07:30:36;;;;;;;1.67;1.67;;;;;;;19.97;84.21;95496.97;4366279;32;20197;-59
2022/08/25 07:33:01;;;;;;;2.27;2.17;;;;;;;20.03;83.33;95496.37;4359279;32;20189;-59
2022/08/25 07:35:26;;;;;;;1.33;1.33;;;;;;;20.08;82.81;95498.81;4361678;32;20193;-60
2022/08/25 07:37:57;;;;;;;2.30;2.20;;;;;;;20.09;83.01;95502.28;4348753;32;20185;-59
2022/08/25 07:40:26;;;;;;;1.97;1.87;;;;;;;20.07;83.32;95497.25;4349863;32;20210;-59
2022/08/25 07:42:55;;;;;;;1.57;1.57;;;;;;;20.12;82.83;95494.28;4374997;32;20185;-59
2022/08/25 07:45:28;;;;;;;2.63;1.77;;;;;;;20.21;82.23;95497.56;4357157;32;20184;-58
2022/08/25 07:47:54;;;;;;;1.77;1.70;;;;;;;20.26;81.95;95493.84;4369522;32;20197;-58
2022/08/25 07:50:19;;;;;;;2.47;2.37;;;;;;;20.26;82.40;95493.84;4339892;32;20215;-59
2022/08/25 07:52:45;;;;;;;2.10;2.00;;;;;;;20.31;82.77;95495.47;4372698;32;20274;-59
2022/08/25 07:55:11;;;;;;;1.73;1.73;;;;;;;20.37;82.48;95499.50;4374369;32;20210;-58
2022/08/25 07:57:38;;;;;;;2.47;2.37;;;;;;;20.37;82.27;95497.56;4371327;32;20216;-59
2022/08/25 08:00:05;;;;;;;2.67;2.43;;;;;;;20.34;82.83;95494.78;4359042;32;20208;-58
2022/08/25 08:02:31;;;;;;;1.67;1.60;;;;;;;20.46;82.37;95497.37;4374209;32;20216;-59
2022/08/25 08:04:56;;;;;;;2.43;2.33;;;;;;;20.50;82.35;95504.41;4372606;32;20215;-59
2022/08/25 08:07:25;;;;;;;0.93;0.93;;;;;;;20.55;82.42;95512.25;4362369;32;20256;-59
2022/08/25 08:09:52;;;;;;;3.10;2.80;;;;;;;20.57;82.35;95504.59;4360101;32;20235;-59
2022/08/25 08:12:17;;;;;;;2.63;2.53;;;;;;;20.57;82.25;95509.19;4361868;32;20211;-59
2022/08/25 08:14:43;;;;;;;1.93;1.83;;;;;;;20.61;81.92;95511.94;4358214;32;20196;-61
2022/08/25 08:17:10;;;;;;;2.80;2.70;;;;;;;20.70;81.34;95504.44;4367067;32;20254;-59
2022/08/25 08:19:35;;;;;;;2.37;2.27;;;;;;;20.70;81.40;95499.06;4351254;32;20216;-59
2022/08/25 08:22:02;;;;;;;3.77;2.57;;;;;;;20.72;81.28;95505.66;4359140;32;20188;-59
2022/08/25 08:24:38;;;;;;;2.53;2.33;;;;;;;20.87;81.04;95506.72;4346434;32;20185;-59
2022/08/25 08:27:05;;;;;;;2.63;2.43;;;;;;;20.92;80.71;95504.53;4357720;32;20185;-59
2022/08/25 08:29:31;;;;;;;2.57;2.47;;;;;;;20.91;81.29;95497.59;4359845;32;20252;-59
2022/08/25 08:31:57;;;;;;;1.80;1.80;;;;;;;21.02;80.33;95494.31;4363451;32;20215;-59
2022/08/25 08:34:22;;;;;;;1.47;1.47;;;;;;;20.99;80.50;95503.13;4360231;32;20204;-59
2022/08/25 08:36:48;;;;;;;1.60;1.50;;;;;;;21.14;79.71;95494.16;4353903;32;20192;-59
2022/08/25 08:39:14;;;;;;;2.20;2.00;;;;;;;21.16;79.84;95500.00;4361436;32;20206;-58
2022/08/25 08:44:44;;;;;;;1.97;1.87;;;;;;;21.32;79.31;95500.72;4370718;32;20211;-59
2022/08/25 08:47:18;;;;;;;1.07;1.07;;;;;;;21.32;79.07;95492.62;4361127;32;20193;-59
2022/08/25 08:49:59;;;;;;;1.90;1.30;;;;;;;21.43;78.72;95485.47;4368882;32;20201;-59
2022/08/25 08:52:39;;;;;;;2.10;2.00;;;;;;;21.42;78.98;95483.13;4367355;32;20203;-58
2022/08/25 08:55:14;;;;;;;1.27;1.23;;;;;;;21.56;78.92;95483.41;4369081;32;20240;-59
2022/08/25 08:57:45;;;;;;;1.27;1.27;;;;;;;21.56;78.71;95478.00;4359917;32;20222;-58
2022/08/25 09:00:12;;;;;;;1.50;1.47;;;;;;;21.63;78.08;95483.50;4359176;32;20232;-58
2022/08/25 09:02:45;;;;;;;2.10;2.00;;;;;;;21.67;77.90;95481.66;4359286;32;20200;-58
2022/08/25 09:05:14;;;;;;;1.40;1.40;;;;;;;21.76;76.94;95468.69;4373426;32;20236;-58
2022/08/25 09:07:49;;;;;;;1.77;1.67;;;;;;;21.84;76.35;95470.34;4360197;32;20196;-58
2022/08/25 09:10:17;;;;;;;1.27;1.23;;;;;;;21.86;76.31;95464.59;4370738;32;20196;-58
2022/08/25 09:12:53;;;;;;;1.00;1.00;;;;;;;21.93;76.41;95464.72;4364164;32;20248;-58
2022/08/25 09:18:41;;;;;;;1.03;1.03;;;;;;;22.08;75.87;95465.75;4371906;32;20318;-59
2022/08/25 09:21:18;;;;;;;1.77;1.77;;;;;;;22.14;75.93;95456.97;4351133;32;20204;-58
2022/08/25 09:24:11;;;;;;;1.03;0.97;;;;;;;22.00;76.55;95464.06;4362142;32;20238;-59
2022/08/25 09:27:17;;;;;;;1.60;1.60;;;;;;;22.16;75.91;95470.12;4355723;32;20192;-58
2022/08/25 09:30:10;;;;;;;1.33;1.33;;;;;;;22.09;76.03;95462.69;4332038;32;20208;-59
2022/08/25 09:32:41;;;;;;;1.17;1.17;;;;;;;22.20;75.83;95474.44;4358577;32;20177;-58
2022/08/25 09:35:13;;;;;;;2.00;1.90;;;;;;;22.32;75.08;95461.84;4364685;32;20189;-58
2022/08/25 09:37:39;;;;;;;0.93;0.93;;;;;;;22.34;75.03;95452.22;4371626;32;20192;-59
2022/08/25 09:40:05;;;;;;;1.53;1.53;;;;;;;22.47;75.37;95455.50;4359194;32;20203;-58
2022/08/25 09:42:49;;;;;;;2.33;2.23;;;;;;;22.59;75.50;95449.88;4373696;32;20216;-59
2022/08/25 09:45:14;;;;;;;1.60;1.57;;;;;;;22.55;76.08;95463.34;4358603;32;20177;-58
2022/08/25 09:47:44;;;;;;;1.33;1.30;;;;;;;22.56;75.83;95453.31;4368040;32;20235;-59
2022/08/25 09:50:15;;;;;;;1.70;1.60;;;;;;;22.65;75.61;95453.81;4358042;32;20205;-59
2022/08/25 09:52:43;;;;;;;1.27;1.27;;;;;;;22.68;75.38;95452.28;4364014;32;20220;-59
2022/08/25 09:55:12;;;;;;;1.30;1.20;;;;;;;22.70;75.14;95452.69;4370537;32;20209;-59
2022/08/25 09:57:53;;;;;;;4.53;1.40;;;;;;;22.67;75.08;95451.50;4367061;32;20211;-59
2022/08/25 10:00:21;;;;;;;1.73;1.63;;;;;;;22.87;73.69;95441.34;4346163;32;20226;-59
2022/08/25 10:03:10;;;;;;;1.70;1.67;;;;;;;22.89;73.84;95447.16;4369730;32;20261;-59
2022/08/25 10:05:44;;;;;;;1.50;1.50;;;;;;;23.03;72.51;95439.22;4357034;32;20241;-59
2022/08/25 10:08:30;;;;;;;1.90;1.80;;;;;;;23.12;71.73;95436.22;4374139;32;20207;-59
2022/08/25 10:10:57;;;;;;;0.87;0.87;;;;;;;23.26;71.09;95431.75;4346102;32;20189;-59
2022/08/25 10:13:39;;;;;;;1.40;1.37;;;;;;;23.33;70.50;95430.22;4360299;32;20193;-59
2022/08/25 10:16:05;;;;;;;1.57;1.27;;;;;;;23.30;70.88;95432.53;4359708;32;20264;-59
2022/08/25 10:18:30;;;;;;;1.03;1.03;;;;;;;23.42;70.84;95431.50;4363833;32;20254;-59
2022/08/25 10:21:09;;;;;;;1.37;1.37;;;;;;;23.62;70.24;95434.81;4363574;32;20192;-59
2022/08/25 10:23:39;;;;;;;1.00;1.00;;;;;;;23.62;69.68;95427.44;4371490;32;20245;-59
2022/08/25 10:26:13;;;;;;;0.90;0.90;;;;;;;23.64;69.84;95421.66;4359650;32;20195;-59
2022/08/25 10:29:04;;;;;;;2.03;1.93;;;;;;;23.64;70.00;95421.66;4344648;32;20215;-59
2022/08/25 10:31:48;;;;;;;0.77;0.77;;;;;;;23.70;69.77;95414.72;4358281;32;20257;-59
2022/08/25 10:34:44;;;;;;;1.50;1.33;;;;;;;23.82;68.81;95416.38;4360075;32;20185;-59
2022/08/25 10:37:54;;;;;;;1.50;1.40;;;;;;;23.88;68.22;95418.38;4343410;32;20196;-59
2022/08/25 10:40:27;;;;;;;0.83;0.83;;;;;;;23.83;68.37;95415.22;4322367;32;20201;-59
2022/08/25 10:43:24;;;;;;;1.53;1.53;;;;;;;23.89;68.72;95402.88;4327000;33;20233;-59
2022/08/25 10:46:13;;;;;;;1.70;1.40;;;;;;;23.92;68.67;95402.12;4351290;32;20219;-59
2022/08/25 10:48:41;;;;;;;1.57;1.47;;;;;;;24.19;67.59;95402.69;4342376;32;20197;-59
2022/08/25 10:51:07;;;;;;;1.23;1.13;;;;;;;24.26;66.45;95408.19;4358098;32;20205;-58
2022/08/25 10:54:06;;;;;;;0.97;0.97;;;;;;;24.27;66.28;95396.19;4370355;32;20188;-59
2022/08/25 10:56:40;;;;;;;1.17;1.17;;;;;;;24.30;65.90;95398.91;4344643;32;20255;-58
2022/08/25 10:59:27;;;;;;;1.20;1.20;;;;;;;24.20;66.40;95396.09;4355423;32;20188;-59
2022/08/25 11:02:11;;;;;;;1.80;1.70;;;;;;;24.27;65.71;95402.38;4360454;32;20192;-59
2022/08/25 11:04:54;;;;;;;2.63;1.80;;;;;;;24.29;66.46;95391.16;4342913;32;20189;-59
2022/08/25 11:07:23;;;;;;;1.77;1.67;;;;;;;24.34;66.40;95393.50;4366765;32;20207;-59
2022/08/25 11:09:52;;;;;;;1.07;1.07;;;;;;;24.40;65.29;95386.56;4369710;32;20268;-59
2022/08/25 11:12:34;;;;;;;0.70;0.70;;;;;;;24.40;63.15;95391.97;4353121;32;20210;-59
2022/08/25 11:15:19;;;;;;;0.63;0.63;;;;;;;24.30;63.75;95390.78;4353200;32;20188;-59
2022/08/25 11:18:05;;;;;;;1.23;1.13;;;;;;;24.48;63.25;95396.28;4360393;32;20223;-59
2022/08/25 11:20:36;;;;;;;1.23;1.23;;;;;;;24.37;63.50;95381.09;4356747;32;20192;-59
2022/08/25 11:23:18;;;;;;;0.97;0.97;;;;;;;24.35;64.11;95397.75;4371454;32;20238;-59
2022/08/25 11:25:49;;;;;;;1.47;1.47;;;;;;;24.43;64.14;95387.72;4359447;32;20207;-58
2022/08/25 11:28:29;;;;;;;1.37;1.37;;;;;;;24.48;63.65;95380.00;4371366;32;20238;-59
2022/08/25 11:30:58;;;;;;;1.30;1.20;;;;;;;24.45;64.35;95382.72;4374367;32;20220;-58
2022/08/25 11:33:25;;;;;;;3.13;2.13;;;;;;;24.45;65.10;95369.91;4373117;32;20203;-58
2022/08/25 11:36:04;;;;;;;1.10;1.10;;;;;;;24.59;64.06;95382.75;4349968;32;20201;-58
2022/08/25 11:38:35;;;;;;;1.70;1.60;;;;;;;24.74;63.31;95378.16;4371394;32;20196;-59
2022/08/25 11:41:35;;;;;;;1.10;1.10;;;;;;;24.79;62.68;95383.22;4360961;32;20252;-59
2022/08/25 11:44:15;;;;;;;1.27;1.20;;;;;;;24.71;62.79;95371.59;4359520;32;20238;-59
2022/08/25 11:46:48;;;;;;;1.40;1.40;;;;;;;24.63;64.56;95359.91;4361800;32;20196;-58
2022/08/25 11:49:32;;;;;;;1.83;1.20;;;;;;;24.77;65.12;95361.09;4375623;32;20231;-59
2022/08/25 11:51:57;;;;;;;1.27;1.27;;;;;;;24.85;64.83;95354.56;4373541;32;20188;-59
2022/08/25 11:54:29;;;;;;;2.73;2.63;;;;;;;24.85;64.42;95358.03;4365080;32;20263;-58
2022/08/25 11:56:57;;;;;;;1.77;1.67;;;;;;;24.94;64.17;95349.53;4362920;32;20188;-59
2022/08/25 11:59:51;;;;;;;1.17;1.17;;;;;;;24.89;64.25;95360.78;4363842;32;20226;-58
2022/08/25 12:02:35;;;;;;;1.53;1.47;;;;;;;24.91;63.60;95359.22;4367545;32;20189;-58
2022/08/25 12:05:04;;;;;;;1.07;1.00;;;;;;;25.06;63.09;95353.84;4358750;32;20286;-59